Time;durP1;ratioP1;P1;durP2;ratioP2;P2;SDS_P1;SDS_P2;PMS_P1;PMS_P2;Temp;Humidity;BMP_temperature;BMP_pressure;BME280_temperature;BME280_humidity;BME280_pressure;Samples;Min_cycle;Max_cycle;Signal;HPM_P1;HPM_P2
2023/07/15 00:00:49;;;;;;;4.73;4.00;;;21.70;96.50;;;;;;4991706;28;20977;-79
2023/07/15 00:03:16;;;;;;;4.13;3.83;;;21.70;96.40;;;;;;4993136;28;20183;-80
2023/07/15 00:05:41;;;;;;;4.93;4.30;;;22.70;96.90;;;;;;4991924;28;20891;-80
2023/07/15 00:08:08;;;;;;;5.53;4.23;;;21.30;96.30;;;;;;5010085;28;20880;-80
2023/07/15 00:10:36;;;;;;;4.73;4.33;;;21.40;96.60;;;;;;4995929;28;20214;-78
2023/07/15 00:13:02;;;;;;;4.43;4.00;;;21.40;96.90;;;;;;4990530;28;20528;-79
2023/07/15 00:15:28;;;;;;;4.70;4.20;;;21.00;97.00;;;;;;5009098;28;20560;-79
2023/07/15 00:17:53;;;;;;;4.30;4.00;;;21.20;97.70;;;;;;4988324;28;20976;-80
2023/07/15 00:20:20;;;;;;;4.50;4.10;;;20.80;97.60;;;;;;4991685;28;20493;-79
2023/07/15 00:22:46;;;;;;;4.90;4.50;;;20.80;97.60;;;;;;4990512;28;20184;-79
2023/07/15 00:25:18;;;;;;;4.68;4.25;;;20.70;97.70;;;;;;4993653;28;20572;-78
2023/07/15 00:27:44;;;;;;;4.28;3.90;;;20.60;98.00;;;;;;4973727;28;20191;-79
2023/07/15 00:30:13;;;;;;;5.00;4.60;;;20.90;98.40;;;;;;4992144;28;20190;-79
2023/07/15 00:32:40;;;;;;;5.80;4.00;;;20.50;98.70;;;;;;4990422;28;20183;-79
2023/07/15 00:35:28;;;;;;;5.05;4.43;;;20.50;99.00;;;;;;5008635;28;20300;-79
2023/07/15 00:37:58;;;;;;;3.87;3.57;;;20.60;98.80;;;;;;5004697;28;20693;-79
2023/07/15 00:40:25;;;;;;;4.40;4.00;;;20.60;98.60;;;;;;4987125;28;20438;-79
2023/07/15 00:42:51;;;;;;;4.05;3.65;;;20.60;99.00;;;;;;4991579;28;20221;-79
2023/07/15 00:45:17;;;;;;;4.50;4.10;;;20.60;98.80;;;;;;5005362;28;20186;-79
2023/07/15 00:47:50;;;;;;;3.90;3.60;;;20.50;98.90;;;;;;4992507;28;20274;-79
2023/07/15 00:50:16;;;;;;;14.63;12.45;;;20.30;99.10;;;;;;4989867;28;20597;-79
2023/07/15 00:52:42;;;;;;;5.90;5.23;;;20.30;99.40;;;;;;4989756;28;20219;-79
2023/07/15 00:55:09;;;;;;;4.40;4.10;;;20.70;99.70;;;;;;4992150;28;20253;-78
2023/07/15 00:57:34;;;;;;;4.53;4.13;;;20.60;99.90;;;;;;4987630;28;20486;-79
2023/07/15 01:00:03;;;;;;;4.90;3.83;;;20.10;99.80;;;;;;4989595;28;20231;-79
2023/07/15 01:02:30;;;;;;;4.80;4.40;;;20.60;99.90;;;;;;4991023;28;20577;-79
2023/07/15 01:04:55;;;;;;;4.50;4.20;;;20.10;99.90;;;;;;5008730;28;20190;-79
2023/07/15 01:07:21;;;;;;;4.40;4.03;;;20.50;99.90;;;;;;4990784;28;20336;-79
2023/07/15 01:09:47;;;;;;;4.67;4.27;;;20.40;99.90;;;;;;4991479;28;20988;-79
2023/07/15 01:12:13;;;;;;;4.57;4.18;;;20.00;99.90;;;;;;4988316;28;20673;-80
2023/07/15 01:14:38;;;;;;;4.60;4.20;;;20.00;99.90;;;;;;4990309;28;20202;-80
2023/07/15 01:17:05;;;;;;;4.17;3.87;;;19.90;99.90;;;;;;4990494;28;20203;-79
2023/07/15 01:19:31;;;;;;;4.55;4.25;;;20.00;99.90;;;;;;4989900;28;20720;-79
2023/07/15 01:21:57;;;;;;;4.40;4.10;;;20.00;99.90;;;;;;5006561;28;20186;-80
2023/07/15 01:24:26;;;;;;;4.87;4.17;;;20.50;99.90;;;;;;5009564;28;20332;-79
2023/07/15 01:26:57;;;;;;;4.40;4.00;;;20.00;99.90;;;;;;4992421;28;20825;-80
2023/07/15 01:29:22;;;;;;;4.22;3.90;;;20.20;99.90;;;;;;4987925;28;20205;-80
2023/07/15 01:31:48;;;;;;;4.37;4.03;;;20.50;99.90;;;;;;5012161;28;20659;-79
2023/07/15 01:34:14;;;;;;;4.67;3.93;;;20.10;99.90;;;;;;4991701;28;20234;-79
2023/07/15 01:36:40;;;;;;;4.70;4.30;;;20.70;99.90;;;;;;5009439;28;20217;-80
2023/07/15 01:39:07;;;;;;;4.00;3.43;;;20.30;99.90;;;;;;4993046;28;20203;-78
2023/07/15 01:41:34;;;;;;;4.03;3.80;;;20.50;99.90;;;;;;4990436;28;20183;-79
2023/07/15 01:43:59;;;;;;;3.87;3.57;;;20.70;99.70;;;;;;5006857;28;20191;-79
2023/07/15 01:46:26;;;;;;;3.87;3.57;;;20.80;99.50;;;;;;4990292;28;20476;-79
2023/07/15 01:48:51;;;;;;;4.05;3.65;;;21.30;99.40;;;;;;4993837;28;20183;-79
2023/07/15 01:51:17;;;;;;;3.87;3.50;;;21.00;98.80;;;;;;4989382;28;20274;-79
2023/07/15 01:53:43;;;;;;;4.07;3.73;;;21.10;98.50;;;;;;4994414;28;20195;-79
2023/07/15 01:56:08;;;;;;;4.07;3.77;;;21.60;98.30;;;;;;4992480;28;20206;-79
2023/07/15 01:58:33;;;;;;;3.73;3.40;;;21.30;97.80;;;;;;5002889;28;20182;-79
2023/07/15 02:00:59;;;;;;;3.43;3.23;;;21.70;97.70;;;;;;5009282;28;20693;-78
2023/07/15 02:03:25;;;;;;;4.30;4.00;;;21.50;97.40;;;;;;4994124;28;20176;-80
2023/07/15 02:05:51;;;;;;;3.70;3.50;;;21.50;97.30;;;;;;4995806;28;20222;-78
2023/07/15 02:08:16;;;;;;;3.75;3.33;;;21.50;97.20;;;;;;4989161;28;20200;-79
2023/07/15 02:10:42;;;;;;;4.50;3.93;;;21.50;97.40;;;;;;4992756;28;20183;-79
2023/07/15 02:13:09;;;;;;;3.70;3.40;;;21.50;97.40;;;;;;4995939;28;20175;-79
2023/07/15 02:15:34;;;;;;;3.80;3.60;;;21.50;97.40;;;;;;4996580;28;20679;-79
2023/07/15 02:18:00;;;;;;;3.73;3.50;;;21.40;97.60;;;;;;4992287;28;20448;-79
2023/07/15 02:20:25;;;;;;;3.57;3.27;;;21.80;98.00;;;;;;4992800;28;20637;-79
2023/07/15 02:22:52;;;;;;;3.60;3.30;;;21.60;98.10;;;;;;5008301;28;20687;-79
2023/07/15 02:25:18;;;;;;;3.87;3.57;;;21.20;98.00;;;;;;4994359;28;20183;-79
2023/07/15 02:27:43;;;;;;;3.60;3.30;;;21.60;98.40;;;;;;4990916;28;20960;-79
2023/07/15 02:30:09;;;;;;;3.63;3.33;;;21.40;98.40;;;;;;4992979;28;20189;-80
2023/07/15 02:32:42;;;;;;;4.93;3.40;;;21.10;98.40;;;;;;4995356;28;20186;-80
2023/07/15 02:35:12;;;;;;;3.72;3.42;;;21.10;98.40;;;;;;4997116;28;20203;-80
2023/07/15 02:37:39;;;;;;;5.03;3.55;;;21.50;98.40;;;;;;5001916;28;20270;-80
2023/07/15 02:40:06;;;;;;;3.90;3.60;;;21.10;98.30;;;;;;4991474;28;20187;-80
2023/07/15 02:42:34;;;;;;;3.40;3.10;;;21.10;98.40;;;;;;4993106;28;20183;-80
2023/07/15 02:45:03;;;;;;;3.47;3.17;;;21.00;98.50;;;;;;5012380;28;20270;-80
2023/07/15 02:47:29;;;;;;;3.90;3.60;;;21.00;98.60;;;;;;4995775;28;20233;-81
2023/07/15 02:49:56;;;;;;;4.07;3.78;;;21.00;98.70;;;;;;4994356;28;20187;-80
2023/07/15 02:52:23;;;;;;;4.40;3.78;;;21.20;99.10;;;;;;4992993;28;20218;-80
2023/07/15 02:54:48;;;;;;;3.90;3.60;;;21.20;99.40;;;;;;4994825;28;20206;-80
2023/07/15 02:57:14;;;;;;;3.40;3.10;;;20.80;99.50;;;;;;5013534;28;20201;-80
2023/07/15 02:59:39;;;;;;;5.30;4.00;;;20.70;99.60;;;;;;4993390;28;20179;-81
2023/07/15 03:02:05;;;;;;;3.90;3.50;;;20.60;99.70;;;;;;4995368;28;20282;-81
2023/07/15 03:04:30;;;;;;;4.50;4.00;;;20.70;99.80;;;;;;4993863;28;20209;-81
2023/07/15 03:06:58;;;;;;;3.77;3.47;;;21.10;99.90;;;;;;4994046;28;20254;-79
2023/07/15 03:09:25;;;;;;;4.30;4.00;;;20.50;99.90;;;;;;4993280;28;20190;-80
2023/07/15 03:11:50;;;;;;;4.00;3.70;;;21.00;99.90;;;;;;4994981;28;20281;-80
2023/07/15 03:14:16;;;;;;;3.80;3.50;;;20.80;99.90;;;;;;4993748;28;20274;-79
2023/07/15 03:16:41;;;;;;;3.90;3.60;;;20.40;99.90;;;;;;4994752;28;20233;-80
2023/07/15 03:19:07;;;;;;;4.50;3.50;;;20.30;99.90;;;;;;4993639;28;20197;-80
2023/07/15 03:21:33;;;;;;;6.30;3.77;;;20.40;99.90;;;;;;5009648;28;20233;-80
2023/07/15 03:23:58;;;;;;;4.57;3.90;;;20.80;99.90;;;;;;5012294;28;20946;-80
2023/07/15 03:26:24;;;;;;;4.50;3.63;;;20.60;99.90;;;;;;4995286;28;20231;-80
2023/07/15 03:28:49;;;;;;;3.97;3.57;;;20.70;99.90;;;;;;4993956;28;20241;-80
2023/07/15 03:31:15;;;;;;;4.27;3.20;;;20.60;99.90;;;;;;4993844;28;20206;-80
2023/07/15 03:33:41;;;;;;;3.60;3.30;;;20.80;99.90;;;;;;4995183;28;20190;-80
2023/07/15 03:36:07;;;;;;;5.00;3.67;;;20.70;99.90;;;;;;4993670;28;20502;-80
2023/07/15 03:38:32;;;;;;;4.03;3.60;;;20.40;99.90;;;;;;4993104;28;20183;-80
2023/07/15 03:40:58;;;;;;;3.50;3.30;;;20.80;99.90;;;;;;4993851;28;20441;-80
2023/07/15 03:43:23;;;;;;;3.97;3.67;;;21.60;99.90;;;;;;4994809;28;20541;-80
2023/07/15 03:45:49;;;;;;;4.33;3.43;;;20.80;99.90;;;;;;4993966;28;20229;-80
2023/07/15 03:48:14;;;;;;;3.93;3.60;;;21.00;99.90;;;;;;4995476;28;20182;-80
2023/07/15 03:50:40;;;;;;;4.20;3.90;;;20.90;99.90;;;;;;4995421;28;20693;-80
2023/07/15 03:53:05;;;;;;;3.40;3.10;;;20.60;99.90;;;;;;4995253;28;20202;-79
2023/07/15 03:55:31;;;;;;;4.67;4.20;;;21.20;99.90;;;;;;4994799;28;20218;-80
2023/07/15 03:57:56;;;;;;;4.53;4.23;;;21.10;99.90;;;;;;4993434;28;20194;-79
2023/07/15 04:00:22;;;;;;;3.73;3.47;;;20.90;99.90;;;;;;4994093;28;20426;-80
2023/07/15 04:02:53;;;;;;;3.60;3.37;;;21.20;99.90;;;;;;4990867;28;20179;-81
2023/07/15 04:05:18;;;;;;;3.88;3.50;;;21.30;99.90;;;;;;4993215;28;20655;-81
2023/07/15 04:07:44;;;;;;;4.40;3.70;;;21.50;99.20;;;;;;4993754;28;20202;-82
2023/07/15 04:10:09;;;;;;;3.60;3.20;;;22.10;98.60;;;;;;4992879;28;20194;-81
2023/07/15 04:12:35;;;;;;;3.53;3.33;;;21.90;98.00;;;;;;4990985;28;20203;-82
2023/07/15 04:15:00;;;;;;;5.40;4.40;;;22.60;97.90;;;;;;4992808;28;20214;-82
2023/07/15 04:17:26;;;;;;;5.07;4.07;;;22.10;97.40;;;;;;4993946;28;20217;-80
2023/07/15 04:19:51;;;;;;;4.60;4.20;;;22.00;97.40;;;;;;5010945;28;20281;-80
2023/07/15 04:22:17;;;;;;;4.20;3.80;;;24.10;98.40;;;;;;4991087;28;20185;-80
2023/07/15 04:24:43;;;;;;;3.50;3.30;;;22.40;96.70;;;;;;4989986;28;20199;-80
2023/07/15 04:27:08;;;;;;;4.80;3.60;;;22.50;96.60;;;;;;4992217;28;20214;-80
2023/07/15 04:29:34;;;;;;;4.47;4.07;;;22.20;96.70;;;;;;4989768;28;20189;-80
2023/07/15 04:31:59;;;;;;;3.97;3.67;;;22.50;97.30;;;;;;4992533;28;20446;-78
2023/07/15 04:34:25;;;;;;;4.50;4.10;;;22.00;97.40;;;;;;5007285;28;20710;-80
2023/07/15 04:36:50;;;;;;;4.43;3.77;;;23.50;98.60;;;;;;5006260;28;20217;-80
2023/07/15 04:39:16;;;;;;;3.83;3.53;;;21.90;98.20;;;;;;5008181;28;20191;-81
2023/07/15 04:41:41;;;;;;;3.60;3.30;;;22.00;98.60;;;;;;5009589;28;20210;-81
2023/07/15 04:44:07;;;;;;;4.47;3.53;;;21.60;98.40;;;;;;5000530;28;20179;-91
2023/07/15 04:46:33;;;;;;;4.80;4.33;;;22.00;98.60;;;;;;5006331;23;20250;-71
2023/07/15 04:48:58;;;;;;;4.03;3.63;;;21.80;98.20;;;;;;5023060;28;20203;-70
2023/07/15 04:51:24;;;;;;;3.97;3.67;;;21.90;98.00;;;;;;5024510;28;20236;-69
2023/07/15 04:53:50;;;;;;;4.20;3.90;;;22.00;97.80;;;;;;5012940;28;20778;-69
2023/07/15 04:56:16;;;;;;;4.10;3.70;;;22.20;97.60;;;;;;5006340;28;20214;-69
2023/07/15 04:58:42;;;;;;;3.77;3.40;;;22.20;97.40;;;;;;5007217;28;20438;-70
2023/07/15 05:01:08;;;;;;;4.03;3.70;;;22.30;97.00;;;;;;5006955;28;20227;-71
2023/07/15 05:03:34;;;;;;;3.57;3.27;;;22.30;96.60;;;;;;5006855;28;20524;-69
2023/07/15 05:06:00;;;;;;;4.20;3.90;;;22.40;96.60;;;;;;5007948;28;20556;-69
2023/07/15 05:08:27;;;;;;;3.43;3.23;;;22.40;96.10;;;;;;5006962;28;20179;-70
2023/07/15 05:10:53;;;;;;;3.40;3.20;;;22.50;96.00;;;;;;5007135;28;20453;-70
2023/07/15 05:13:19;;;;;;;5.03;3.80;;;22.60;95.60;;;;;;5007008;28;20462;-71
2023/07/15 05:15:45;;;;;;;3.43;3.10;;;22.70;95.60;;;;;;5004876;28;20457;-70
2023/07/15 05:18:10;;;;;;;3.53;3.33;;;22.70;95.30;;;;;;5005343;28;20237;-71
2023/07/15 05:20:37;;;;;;;3.97;3.67;;;22.80;95.10;;;;;;5004133;28;20925;-70
2023/07/15 05:23:04;;;;;;;3.53;3.30;;;22.80;94.80;;;;;;5020189;28;20289;-70
2023/07/15 05:25:31;;;;;;;3.83;3.53;;;23.00;94.70;;;;;;5006816;28;20453;-70
2023/07/15 05:27:58;;;;;;;3.90;3.60;;;23.10;94.40;;;;;;5003207;28;20468;-71
2023/07/15 05:30:23;;;;;;;3.30;3.10;;;23.20;94.10;;;;;;5003277;28;20445;-71
2023/07/15 05:32:49;;;;;;;3.30;3.10;;;23.30;93.80;;;;;;5006840;28;20463;-71
2023/07/15 05:35:15;;;;;;;3.67;3.13;;;23.40;93.00;;;;;;5004840;28;20213;-71
2023/07/15 05:37:41;;;;;;;3.33;3.13;;;23.60;93.40;;;;;;5004909;28;20446;-69
2023/07/15 05:40:10;;;;;;;3.20;3.00;;;23.70;93.10;;;;;;5004162;28;20450;-70
2023/07/15 05:42:43;;;;;;;4.23;3.43;;;23.80;92.00;;;;;;5001947;28;20619;-70
2023/07/15 05:45:10;;;;;;;3.87;2.63;;;23.90;92.20;;;;;;5005672;28;20948;-71
2023/07/15 05:47:35;;;;;;;3.90;3.40;;;24.00;92.20;;;;;;5006039;28;20531;-71
2023/07/15 05:50:02;;;;;;;3.13;2.80;;;24.10;92.00;;;;;;5020640;28;20473;-70
2023/07/15 05:52:28;;;;;;;3.60;3.30;;;24.20;91.40;;;;;;5004378;28;20660;-70
2023/07/15 05:54:53;;;;;;;3.63;3.33;;;24.20;91.00;;;;;;5005407;28;20536;-70
2023/07/15 05:57:19;;;;;;;2.93;2.70;;;24.30;90.30;;;;;;5006332;28;20848;-71
2023/07/15 05:59:45;;;;;;;3.10;2.90;;;24.40;90.00;;;;;;5004255;28;20221;-70
2023/07/15 06:02:11;;;;;;;3.00;2.80;;;24.50;89.70;;;;;;5005825;28;20894;-71
2023/07/15 06:04:36;;;;;;;3.50;3.20;;;24.70;88.80;;;;;;5005637;28;20459;-70
2023/07/15 06:07:02;;;;;;;3.47;3.13;;;24.80;87.90;;;;;;5020306;28;20186;-70
2023/07/15 06:09:27;;;;;;;3.00;2.80;;;25.00;87.40;;;;;;5004284;28;20182;-70
2023/07/15 06:11:53;;;;;;;3.00;2.80;;;25.10;86.60;;;;;;5006844;28;20217;-71
2023/07/15 06:14:19;;;;;;;3.20;2.87;;;25.20;86.10;;;;;;5008880;28;20213;-70
2023/07/15 06:16:45;;;;;;;3.87;3.33;;;25.40;85.20;;;;;;5010672;28;20476;-69
2023/07/15 06:19:10;;;;;;;3.30;3.00;;;25.50;84.70;;;;;;5025446;28;20284;-69
2023/07/15 06:21:36;;;;;;;3.20;2.90;;;25.60;84.10;;;;;;5007446;28;20202;-69
2023/07/15 06:24:03;;;;;;;3.20;2.90;;;25.80;83.70;;;;;;5010796;28;20570;-70
2023/07/15 06:26:29;;;;;;;3.40;3.10;;;25.90;82.70;;;;;;5010808;28;20527;-69
2023/07/15 06:28:54;;;;;;;5.20;3.23;;;26.00;81.70;;;;;;5024327;28;20487;-69
2023/07/15 06:31:20;;;;;;;3.40;3.20;;;26.10;81.10;;;;;;5009183;28;20186;-71
2023/07/15 06:33:48;;;;;;;3.33;3.07;;;26.30;80.80;;;;;;5010502;28;20211;-70
2023/07/15 06:36:14;;;;;;;3.13;2.87;;;26.40;81.00;;;;;;5010923;28;20213;-70
2023/07/15 06:38:40;;;;;;;4.00;2.93;;;26.50;79.50;;;;;;5003540;28;20805;-70
2023/07/15 06:41:06;;;;;;;3.57;3.13;;;26.60;79.10;;;;;;5008271;28;20508;-71
2023/07/15 06:43:31;;;;;;;4.57;3.00;;;26.70;78.70;;;;;;5005240;28;20948;-70
2023/07/15 06:45:57;;;;;;;4.13;3.00;;;26.90;78.30;;;;;;5007838;28;20685;-70
2023/07/15 06:48:23;;;;;;;5.90;3.40;;;27.00;77.10;;;;;;5024774;28;20184;-69
2023/07/15 06:50:49;;;;;;;3.60;3.27;;;27.20;76.50;;;;;;5010676;28;20193;-71
2023/07/15 06:53:14;;;;;;;2.80;2.60;;;27.40;75.90;;;;;;5009861;28;20212;-70
2023/07/15 06:55:40;;;;;;;2.83;2.63;;;28.00;74.70;;;;;;5009228;28;20464;-71
2023/07/15 06:58:06;;;;;;;3.47;3.17;;;28.60;72.50;;;;;;5022850;28;20655;-75
2023/07/15 07:00:32;;;;;;;3.67;2.90;;;29.00;70.80;;;;;;5009257;28;20210;-71
2023/07/15 07:02:59;;;;;;;3.53;3.23;;;29.10;69.90;;;;;;5024422;28;20452;-69
2023/07/15 07:05:26;;;;;;;3.80;3.13;;;29.10;69.40;;;;;;5019713;28;20551;-72
2023/07/15 07:07:52;;;;;;;3.70;3.20;;;29.20;68.80;;;;;;5008833;28;20468;-71
2023/07/15 07:10:17;;;;;;;4.53;3.00;;;29.30;68.60;;;;;;5009267;28;20827;-71
2023/07/15 07:12:43;;;;;;;3.27;2.97;;;29.70;66.70;;;;;;5007940;28;20786;-69
2023/07/15 07:15:09;;;;;;;3.17;2.97;;;31.00;65.10;;;;;;5009908;28;20215;-70
2023/07/15 07:17:35;;;;;;;3.17;2.97;;;33.00;59.30;;;;;;5017893;28;20310;-71
2023/07/15 07:20:00;;;;;;;3.40;3.10;;;35.00;55.20;;;;;;5004855;28;20533;-71
2023/07/15 07:22:26;;;;;;;4.00;2.80;;;36.70;50.90;;;;;;5005742;28;20194;-71
2023/07/15 07:24:53;;;;;;;5.17;2.80;;;38.50;47.60;;;;;;5005964;28;20202;-71
2023/07/15 07:27:19;;;;;;;3.60;2.70;;;39.50;43.80;;;;;;5005600;28;20201;-72
2023/07/15 07:29:45;;;;;;;3.20;2.80;;;40.60;41.30;;;;;;5007303;28;20541;-70
2023/07/15 07:32:11;;;;;;;3.00;2.80;;;42.30;38.60;;;;;;5007679;28;20273;-71
2023/07/15 07:34:36;;;;;;;3.30;3.10;;;43.00;36.40;;;;;;5004178;28;20489;-71
2023/07/15 07:37:02;;;;;;;3.00;2.80;;;43.60;34.30;;;;;;5005128;28;20660;-71
2023/07/15 07:39:29;;;;;;;3.33;3.07;;;43.80;33.00;;;;;;5006489;28;20253;-71
2023/07/15 07:41:55;;;;;;;3.30;3.10;;;43.90;31.70;;;;;;5009587;28;20194;-71
2023/07/15 07:44:21;;;;;;;3.17;2.97;;;44.30;30.90;;;;;;5005589;28;21004;-70
2023/07/15 07:46:46;;;;;;;3.20;3.00;;;43.90;30.90;;;;;;5001784;28;20674;-71
2023/07/15 07:49:12;;;;;;;3.53;3.23;;;44.40;30.40;;;;;;5007375;28;20441;-71
2023/07/15 07:51:37;;;;;;;3.43;3.13;;;44.60;30.10;;;;;;5007198;28;20187;-71
2023/07/15 07:54:03;;;;;;;3.13;2.93;;;45.20;29.70;;;;;;5005896;28;20265;-71
2023/07/15 07:56:29;;;;;;;3.07;2.87;;;45.50;28.90;;;;;;5018532;28;20207;-71
2023/07/15 07:58:57;;;;;;;3.10;2.90;;;46.20;28.20;;;;;;5006630;28;20198;-71
2023/07/15 08:01:24;;;;;;;3.30;3.10;;;46.10;27.90;;;;;;5008543;28;20187;-72
2023/07/15 08:03:49;;;;;;;2.77;2.57;;;46.70;27.60;;;;;;5007536;28;20535;-71
2023/07/15 08:06:15;;;;;;;3.50;3.30;;;46.30;27.30;;;;;;5007299;28;20457;-71
2023/07/15 08:08:42;;;;;;;3.60;3.30;;;46.30;27.10;;;;;;5006309;28;20672;-71
2023/07/15 08:11:07;;;;;;;2.83;2.63;;;46.50;27.20;;;;;;5008125;28;20885;-71
2023/07/15 08:13:33;;;;;;;3.20;2.63;;;47.20;26.60;;;;;;5005434;28;20465;-71
2023/07/15 08:15:59;;;;;;;3.20;3.00;;;47.70;26.10;;;;;;5007483;28;20305;-71
2023/07/15 08:18:24;;;;;;;4.17;3.20;;;47.30;25.80;;;;;;5007846;28;20671;-72
2023/07/15 08:20:51;;;;;;;3.10;2.90;;;46.30;26.30;;;;;;5006806;28;20190;-71
2023/07/15 08:23:16;;;;;;;3.80;2.90;;;45.00;27.30;;;;;;5006869;28;20245;-72
2023/07/15 08:25:42;;;;;;;3.43;3.17;;;43.40;28.40;;;;;;5007317;28;20841;-71
2023/07/15 08:28:08;;;;;;;3.60;3.10;;;42.30;29.90;;;;;;5007199;28;20308;-71
2023/07/15 08:30:36;;;;;;;3.07;2.87;;;40.90;30.60;;;;;;5006876;28;20306;-72
2023/07/15 08:33:06;;;;;;;3.63;2.80;;;39.70;32.00;;;;;;5008252;28;20469;-70
2023/07/15 08:35:32;;;;;;;3.53;2.90;;;38.50;33.20;;;;;;5006369;28;20468;-70
2023/07/15 08:37:58;;;;;;;3.67;3.37;;;38.00;34.30;;;;;;5006288;28;20818;-71
2023/07/15 08:40:25;;;;;;;3.60;3.20;;;37.60;35.00;;;;;;5021878;28;20472;-71
2023/07/15 08:42:54;;;;;;;3.00;2.80;;;37.50;35.20;;;;;;5005509;28;20200;-70
2023/07/15 08:45:21;;;;;;;3.10;2.77;;;37.40;36.00;;;;;;5006143;28;20441;-71
2023/07/15 08:47:48;;;;;;;3.10;2.90;;;37.30;35.30;;;;;;5002903;28;20889;-71
2023/07/15 08:50:17;;;;;;;2.93;2.63;;;37.00;36.10;;;;;;5007041;28;20452;-71
2023/07/15 08:52:44;;;;;;;3.73;3.33;;;36.90;36.10;;;;;;5006302;28;20450;-71
2023/07/15 08:55:11;;;;;;;3.40;3.20;;;36.80;36.60;;;;;;5006682;28;20877;-71
2023/07/15 08:57:36;;;;;;;3.67;3.33;;;37.10;36.40;;;;;;5006058;28;20504;-71
2023/07/15 09:00:09;;;;;;;3.03;2.73;;;37.10;35.20;;;;;;5006683;28;21313;-71
2023/07/15 09:02:37;;;;;;;3.20;3.00;;;37.60;34.80;;;;;;5022242;28;20652;-70
2023/07/15 09:05:07;;;;;;;3.20;2.90;;;37.60;34.50;;;;;;5006170;28;20966;-71
2023/07/15 09:07:49;;;;;;;2.80;2.60;;;37.50;34.10;;;;;;5020242;28;20448;-70
2023/07/15 09:10:14;;;;;;;3.07;2.80;;;37.80;34.20;;;;;;5006307;28;20442;-71
2023/07/15 09:12:47;;;;;;;3.40;3.10;;;40.20;32.50;;;;;;5001945;28;20445;-71
2023/07/15 09:15:16;;;;;;;2.80;2.60;;;41.20;30.70;;;;;;5005780;28;20574;-70
2023/07/15 09:17:53;;;;;;;5.00;3.40;;;41.70;30.00;;;;;;5006173;28;20449;-71
2023/07/15 09:20:20;;;;;;;3.20;3.00;;;41.70;29.60;;;;;;5003028;28;20448;-71
2023/07/15 09:22:55;;;;;;;3.10;2.83;;;42.90;29.10;;;;;;5006302;28;20472;-71
2023/07/15 09:25:22;;;;;;;2.80;2.57;;;43.80;28.60;;;;;;5001387;28;20445;-71
2023/07/15 09:27:49;;;;;;;4.87;2.90;;;45.00;27.00;;;;;;4996964;28;20540;-71
2023/07/15 09:30:14;;;;;;;3.57;3.30;;;45.90;27.20;;;;;;5006464;28;20453;-72
2023/07/15 09:32:40;;;;;;;3.33;3.13;;;46.80;26.20;;;;;;5007169;28;20498;-72
2023/07/15 09:35:06;;;;;;;3.20;3.00;;;47.90;25.20;;;;;;5023167;28;20215;-71
2023/07/15 09:37:33;;;;;;;3.10;2.90;;;48.10;24.30;;;;;;5022663;28;20554;-71
2023/07/15 09:40:07;;;;;;;3.40;3.20;;;49.10;24.00;;;;;;5007855;28;20438;-71
2023/07/15 09:42:53;;;;;;;3.17;2.97;;;49.00;23.50;;;;;;5020135;28;20953;-71
2023/07/15 09:45:38;;;;;;;4.13;3.20;;;49.80;23.00;;;;;;5007917;28;20474;-72
2023/07/15 09:48:13;;;;;;;3.47;3.27;;;49.40;23.40;;;;;;5005759;28;20453;-72
2023/07/15 09:50:40;;;;;;;3.13;3.03;;;49.50;23.10;;;;;;5021925;28;20908;-72
2023/07/15 09:53:07;;;;;;;3.03;2.80;;;49.70;22.30;;;;;;5006258;28;20952;-72
2023/07/15 09:55:36;;;;;;;2.90;2.70;;;48.60;22.80;;;;;;5021429;28;20518;-72
2023/07/15 09:58:23;;;;;;;2.90;2.70;;;47.70;23.40;;;;;;5018666;28;20445;-71
2023/07/15 10:01:02;;;;;;;2.93;2.73;;;46.40;24.00;;;;;;5020014;28;20495;-71
2023/07/15 10:04:02;;;;;;;3.73;3.47;;;46.20;24.50;;;;;;5004739;28;20518;-71
2023/07/15 10:06:28;;;;;;;2.90;2.70;;;44.40;25.50;;;;;;5004204;28;20449;-72
2023/07/15 10:08:54;;;;;;;3.00;2.80;;;43.70;26.20;;;;;;5005990;28;20889;-71
2023/07/15 10:11:20;;;;;;;2.97;2.77;;;42.70;27.00;;;;;;5004990;28;20449;-71
2023/07/15 10:13:46;;;;;;;4.20;3.00;;;42.40;27.70;;;;;;5005538;28;20473;-71
2023/07/15 10:16:12;;;;;;;3.80;3.07;;;42.50;27.70;;;;;;5004722;28;20758;-72
2023/07/15 10:18:38;;;;;;;3.10;2.80;;;43.60;27.10;;;;;;5006325;28;20453;-72
2023/07/15 10:21:05;;;;;;;3.20;3.00;;;44.60;26.50;;;;;;5006348;28;20968;-71
2023/07/15 10:23:33;;;;;;;3.53;3.23;;;44.80;26.20;;;;;;5005043;28;20211;-72
2023/07/15 10:26:06;;;;;;;5.07;3.20;;;44.00;26.20;;;;;;5005921;28;20441;-71
2023/07/15 10:28:36;;;;;;;3.63;3.10;;;43.00;26.60;;;;;;5005779;28;20471;-72
2023/07/15 10:31:07;;;;;;;2.87;2.67;;;41.80;27.80;;;;;;5003461;28;21065;-71
2023/07/15 10:33:35;;;;;;;3.67;2.90;;;40.90;28.50;;;;;;5005766;28;20568;-72
2023/07/15 10:36:04;;;;;;;3.00;2.80;;;40.40;29.70;;;;;;5001998;28;20547;-72
2023/07/15 10:38:34;;;;;;;3.40;3.20;;;40.10;30.00;;;;;;5005276;28;20481;-71
2023/07/15 10:41:04;;;;;;;3.67;3.37;;;38.90;30.40;;;;;;5005963;28;21000;-71
2023/07/15 10:43:38;;;;;;;2.97;2.77;;;38.50;31.00;;;;;;5003064;28;20524;-71
2023/07/15 10:46:11;;;;;;;3.40;3.20;;;38.00;31.50;;;;;;5005812;28;20452;-71
2023/07/15 10:48:38;;;;;;;3.27;3.07;;;38.20;31.30;;;;;;5021067;28;20448;-71
2023/07/15 10:51:06;;;;;;;3.07;2.87;;;38.60;31.70;;;;;;5004915;28;20532;-71
2023/07/15 10:53:33;;;;;;;3.00;2.80;;;39.50;30.70;;;;;;5005725;28;20505;-71
2023/07/15 10:56:09;;;;;;;2.87;2.67;;;39.60;29.70;;;;;;5017906;28;21185;-70
2023/07/15 10:58:35;;;;;;;3.20;3.00;;;39.80;29.70;;;;;;5000390;28;20926;-73
2023/07/15 11:01:06;;;;;;;2.83;2.63;;;39.80;29.90;;;;;;5006311;28;20454;-71
2023/07/15 11:03:35;;;;;;;3.03;2.83;;;39.40;29.80;;;;;;5007475;28;20461;-71
2023/07/15 11:06:02;;;;;;;3.80;3.47;;;39.70;30.00;;;;;;5007083;28;20457;-71
2023/07/15 11:08:28;;;;;;;3.50;3.20;;;39.20;29.80;;;;;;5007719;28;20503;-73
2023/07/15 11:11:05;;;;;;;2.63;2.53;;;38.80;30.30;;;;;;5006232;28;20533;-74
2023/07/15 11:13:34;;;;;;;3.40;3.13;;;38.60;30.60;;;;;;5006170;28;20465;-72
2023/07/15 11:16:00;;;;;;;4.70;3.07;;;38.90;30.60;;;;;;5008394;28;20550;-71
2023/07/15 11:18:26;;;;;;;3.70;3.23;;;40.30;30.20;;;;;;5007734;28;21180;-71
2023/07/15 11:21:00;;;;;;;3.07;2.87;;;40.90;29.10;;;;;;5007627;28;20199;-72
2023/07/15 11:23:30;;;;;;;3.30;2.97;;;42.50;28.10;;;;;;5005831;28;20540;-75
2023/07/15 11:25:57;;;;;;;2.80;2.60;;;43.90;26.90;;;;;;5005767;28;20850;-74
2023/07/15 11:28:23;;;;;;;2.87;2.67;;;43.10;26.90;;;;;;5021499;28;20993;-71
2023/07/15 11:30:49;;;;;;;3.40;3.20;;;41.90;28.00;;;;;;5024235;28;20541;-76
2023/07/15 11:33:16;;;;;;;3.53;3.27;;;40.80;28.00;;;;;;5008254;28;20325;-72
2023/07/15 11:35:43;;;;;;;3.00;2.80;;;40.20;28.90;;;;;;5006725;28;20559;-72
2023/07/15 11:38:12;;;;;;;3.33;3.03;;;39.40;29.30;;;;;;5005630;28;20456;-72
2023/07/15 11:40:54;;;;;;;3.43;3.20;;;38.70;30.10;;;;;;5005389;28;20438;-74
2023/07/15 11:43:23;;;;;;;2.60;2.40;;;38.80;30.20;;;;;;5019512;28;20461;-75
2023/07/15 11:45:48;;;;;;;3.97;3.10;;;39.90;29.10;;;;;;5021305;28;21006;-72
2023/07/15 11:48:34;;;;;;;5.73;3.87;;;40.10;29.00;;;;;;5022484;28;20541;-72
2023/07/15 11:51:09;;;;;;;3.90;3.70;;;39.60;32.00;;;;;;5021959;28;20186;-75
2023/07/15 11:53:37;;;;;;;4.50;3.60;;;38.70;33.60;;;;;;5006511;28;20485;-71
2023/07/15 11:56:08;;;;;;;3.97;3.67;;;38.40;34.30;;;;;;5008985;28;20493;-73
2023/07/15 11:58:46;;;;;;;4.00;3.70;;;38.40;34.40;;;;;;5005625;28;20434;-71
2023/07/15 12:01:25;;;;;;;3.70;3.40;;;38.00;35.30;;;;;;5005838;28;20885;-70
2023/07/15 12:03:50;;;;;;;3.50;3.20;;;37.40;36.10;;;;;;5006899;28;20524;-71
2023/07/15 12:06:18;;;;;;;3.17;2.97;;;37.20;34.90;;;;;;5003275;28;20445;-71
2023/07/15 12:09:03;;;;;;;3.33;3.10;;;36.60;35.30;;;;;;5002788;28;20472;-71
2023/07/15 12:11:30;;;;;;;3.87;3.67;;;36.50;35.60;;;;;;5022866;28;20446;-71
2023/07/15 12:13:56;;;;;;;3.50;3.30;;;36.40;35.90;;;;;;5007791;28;20472;-71
2023/07/15 12:16:23;;;;;;;3.87;3.50;;;36.30;35.90;;;;;;5007754;28;20461;-71
2023/07/15 12:18:49;;;;;;;3.10;2.90;;;36.20;36.30;;;;;;5007367;28;20666;-71
2023/07/15 12:21:14;;;;;;;3.73;3.50;;;36.10;36.70;;;;;;5004434;28;20442;-71
2023/07/15 12:23:43;;;;;;;3.70;3.40;;;35.60;37.90;;;;;;5022233;28;20278;-72
2023/07/15 12:26:08;;;;;;;5.53;3.57;;;35.70;38.20;;;;;;5006590;28;20191;-71
2023/07/15 12:28:34;;;;;;;3.90;3.60;;;35.80;37.80;;;;;;5008965;28;20953;-71
2023/07/15 12:31:01;;;;;;;5.90;4.60;;;35.90;38.50;;;;;;5009488;28;20187;-72
2023/07/15 12:33:27;;;;;;;4.30;3.90;;;35.80;39.00;;;;;;5021398;28;20528;-72
2023/07/15 12:35:53;;;;;;;5.20;4.20;;;35.80;40.00;;;;;;5006042;28;20478;-72
2023/07/15 12:38:18;;;;;;;4.37;4.07;;;35.80;40.70;;;;;;5006462;28;20182;-72
2023/07/15 12:40:44;;;;;;;3.60;3.40;;;35.80;39.40;;;;;;5005115;28;20181;-72
2023/07/15 12:43:09;;;;;;;5.10;4.60;;;35.70;38.60;;;;;;5005250;28;20199;-72
2023/07/15 12:45:35;;;;;;;4.20;3.90;;;35.80;39.50;;;;;;5022967;28;20213;-73
2023/07/15 12:48:00;;;;;;;5.70;4.13;;;35.80;39.50;;;;;;5026135;28;20228;-72